createdAt,value
2019-06-07T00:00:38.252Z,1.90
2019-06-07T00:02:51.769Z,1.90
2019-06-07T00:05:19.985Z,1.40
2019-06-07T00:07:46.643Z,2.00
2019-06-07T00:10:32.630Z,2.30
2019-06-07T00:12:41.702Z,3.40
2019-06-07T00:15:11.641Z,2.40
2019-06-07T00:17:36.572Z,2.80
2019-06-07T00:20:03.990Z,2.62
2019-06-07T00:22:33.435Z,2.20
2019-06-07T00:24:58.830Z,2.55
2019-06-07T00:27:26.227Z,2.17
2019-06-07T00:29:53.641Z,2.37
2019-06-07T00:32:22.053Z,2.10
2019-06-07T00:34:48.499Z,2.75
2019-06-07T00:37:16.407Z,2.15
2019-06-07T00:39:43.384Z,2.00
2019-06-07T00:42:11.474Z,2.20
2019-06-07T00:44:38.272Z,2.35
2019-06-07T00:47:05.667Z,3.33
2019-06-07T00:49:40.957Z,3.65
2019-06-07T00:52:00.503Z,3.35
2019-06-07T00:54:28.090Z,2.47
2019-06-07T00:56:55.496Z,2.50
2019-06-07T00:59:28.829Z,3.08
2019-06-07T01:01:50.428Z,2.80
2019-06-07T01:04:19.394Z,3.00
2019-06-07T01:06:45.245Z,1.95
2019-06-07T01:09:12.887Z,2.60
2019-06-07T01:11:40.151Z,2.50
2019-06-07T01:14:07.548Z,1.90
2019-06-07T01:16:55.797Z,2.80
2019-06-07T01:19:02.472Z,2.58
2019-06-07T01:21:30.119Z,2.30
2019-06-07T01:24:11.452Z,4.53
2019-06-07T01:26:26.948Z,2.58
2019-06-07T01:28:52.123Z,2.83
2019-06-07T01:31:21.129Z,1.80
2019-06-07T01:33:50.957Z,2.30
2019-06-07T01:36:14.506Z,2.15
2019-06-07T01:38:41.982Z,3.10
2019-06-07T01:41:09.439Z,2.58
2019-06-07T01:43:36.853Z,3.03
2019-06-07T01:46:04.383Z,1.65
2019-06-07T01:48:48.461Z,3.10
2019-06-07T01:50:59.218Z,2.15
2019-06-07T01:53:29.127Z,2.60
2019-06-07T01:55:54.066Z,2.50
2019-06-07T01:58:22.231Z,2.30
2019-06-07T02:00:48.945Z,2.70
2019-06-07T02:03:18.368Z,2.92
2019-06-07T02:05:44.364Z,3.10
2019-06-07T02:08:11.806Z,3.62
2019-06-07T02:10:39.223Z,3.22
2019-06-07T02:13:06.663Z,3.30
2019-06-07T02:15:36.770Z,3.05
2019-06-07T02:18:01.596Z,2.92
2019-06-07T02:20:32.112Z,2.65
2019-06-07T02:22:56.684Z,3.25
2019-06-07T02:25:48.450Z,2.97
2019-06-07T02:27:51.639Z,3.30
2019-06-07T02:32:46.665Z,2.70
2019-06-07T02:35:14.176Z,2.67
2019-06-07T02:37:41.682Z,2.80
2019-06-07T02:40:09.150Z,2.80
2019-06-07T02:42:42.251Z,2.95
2019-06-07T02:45:04.939Z,3.25
2019-06-07T02:47:36.041Z,3.28
2019-06-07T02:49:59.872Z,3.20
2019-06-07T02:52:31.616Z,2.58
2019-06-07T02:54:54.923Z,3.80
2019-06-07T02:57:24.997Z,3.37
2019-06-07T03:00:06.463Z,2.47
2019-06-07T03:02:17.382Z,3.20
2019-06-07T03:04:45.142Z,3.45
2019-06-07T03:07:12.434Z,3.25
2019-06-07T03:09:40.165Z,5.10
2019-06-07T03:12:07.432Z,7.32
2019-06-07T03:14:35.281Z,4.57
2019-06-07T03:19:58.471Z,6.70
2019-06-07T03:22:26.724Z,4.97
2019-06-07T03:24:53.398Z,5.40
2019-06-07T03:27:34.903Z,4.53
2019-06-07T03:29:48.386Z,6.25
2019-06-07T03:32:15.861Z,5.40
2019-06-07T03:34:44.015Z,5.20
2019-06-07T03:37:10.847Z,5.60
2019-06-07T03:39:40.912Z,4.25
2019-06-07T03:42:08.387Z,5.12
2019-06-07T03:44:36.408Z,4.25
2019-06-07T03:47:00.844Z,5.30
2019-06-07T03:49:30.737Z,4.87
2019-06-07T03:51:55.779Z,5.55
2019-06-07T03:54:23.236Z,5.05
2019-06-07T03:56:50.771Z,4.80
2019-06-07T03:59:18.242Z,5.15
2019-06-07T04:01:45.798Z,4.85
2019-06-07T04:04:13.247Z,5.68
2019-06-07T04:06:42.398Z,4.32
2019-06-07T04:09:08.321Z,5.40
2019-06-07T04:11:39.095Z,4.55
2019-06-07T04:14:03.307Z,5.32
2019-06-07T04:16:34.641Z,4.25
2019-06-07T04:18:58.566Z,3.78
2019-06-07T04:21:26.103Z,4.22
2019-06-07T04:23:53.582Z,5.20
2019-06-07T04:26:21.069Z,4.65
2019-06-07T04:29:31.520Z,5.32
2019-06-07T04:31:16.027Z,4.40
2019-06-07T04:33:43.904Z,4.37
2019-06-07T04:36:10.964Z,3.90
2019-06-07T04:38:40.558Z,3.90
2019-06-07T04:41:06.086Z,3.80
2019-06-07T04:43:33.606Z,4.90
2019-06-07T04:46:01.098Z,4.47
2019-06-07T04:48:30.918Z,3.33
2019-06-07T04:50:56.152Z,4.00
2019-06-07T04:53:23.613Z,3.85
2019-06-07T04:55:51.088Z,3.70
2019-06-07T04:58:18.601Z,3.60
2019-06-07T05:00:53.240Z,3.58
2019-06-07T05:03:13.599Z,4.10
2019-06-07T05:05:43.674Z,3.95
2019-06-07T05:08:27.119Z,4.47
2019-06-07T05:10:38.228Z,4.75
2019-06-07T05:13:03.731Z,3.50
2019-06-07T05:15:32.057Z,4.70
2019-06-07T05:17:58.812Z,4.85
2019-06-07T05:20:26.471Z,3.60
2019-06-07T05:22:53.972Z,4.22
2019-06-07T05:25:21.448Z,3.40
2019-06-07T05:27:48.922Z,4.28
2019-06-07T05:32:58.865Z,4.20
2019-06-07T05:35:26.369Z,4.87
2019-06-07T05:37:53.842Z,4.72
2019-06-07T05:40:21.582Z,5.60
2019-06-07T05:42:48.835Z,4.60
2019-06-07T05:45:16.291Z,4.32
2019-06-07T05:47:50.277Z,4.10
2019-06-07T05:50:38.581Z,4.15
2019-06-07T05:52:42.432Z,4.90
2019-06-07T05:55:07.202Z,5.20
2019-06-07T05:57:38.089Z,4.37
2019-06-07T06:00:02.235Z,5.10
2019-06-07T06:02:29.707Z,4.68
2019-06-07T06:04:57.225Z,5.30
2019-06-07T06:07:24.863Z,4.40
2019-06-07T06:09:52.318Z,5.12
2019-06-07T06:12:34.175Z,4.97
2019-06-07T06:14:47.353Z,4.70
2019-06-07T06:17:14.831Z,4.43
2019-06-07T06:19:48.872Z,3.80
2019-06-07T06:22:09.824Z,4.85
2019-06-07T06:27:28.289Z,6.43
2019-06-07T06:29:31.868Z,5.15
2019-06-07T06:34:26.883Z,4.15
2019-06-07T06:36:54.330Z,5.30
2019-06-07T06:39:21.836Z,5.70
2019-06-07T06:41:58.607Z,4.50
2019-06-07T06:44:16.821Z,4.12
2019-06-07T06:46:49.101Z,5.05
2019-06-07T06:49:12.001Z,6.15
2019-06-07T06:51:41.714Z,6.10
2019-06-07T06:54:07.009Z,5.20
2019-06-07T06:56:34.540Z,6.45
2019-06-07T07:01:29.750Z,6.18
2019-06-07T07:04:11.377Z,6.47
2019-06-07T07:06:26.764Z,4.93
2019-06-07T07:08:53.439Z,8.35
2019-06-07T07:11:23.119Z,6.10
2019-06-07T07:13:49.884Z,5.78
2019-06-07T08:07:43.035Z,6.65
2019-06-07T10:03:22.380Z,8.57
2019-06-07T10:05:47.328Z,8.52
2019-06-07T10:09:14.994Z,7.50
2019-06-07T10:10:43.162Z,6.70
2019-06-07T10:13:10.298Z,9.82
2019-06-07T10:15:37.546Z,6.55
2019-06-07T10:18:05.234Z,6.30
2019-06-07T10:20:32.777Z,7.87
2019-06-07T10:23:01.604Z,7.12
2019-06-07T10:25:27.919Z,6.70
2019-06-07T10:27:56.042Z,8.48
2019-06-07T10:30:23.581Z,6.95
2019-06-07T10:32:52.414Z,6.15
2019-06-07T10:35:19.955Z,7.80
2019-06-07T10:37:47.556Z,7.40
2019-06-07T10:40:15.086Z,19.65
2019-06-07T10:42:42.553Z,7.07
2019-06-07T10:45:12.176Z,7.30
2019-06-07T10:47:38.469Z,5.65
2019-06-07T10:50:06.054Z,8.40
2019-06-07T10:52:33.552Z,7.37
2019-06-07T10:55:02.512Z,6.50
2019-06-07T10:57:29.415Z,6.50
2019-06-07T10:59:56.892Z,7.20
2019-06-07T11:02:24.542Z,7.45
2019-06-07T11:04:52.051Z,6.72
2019-06-07T11:07:19.551Z,4.93
2019-06-07T11:09:47.197Z,8.15
2019-06-07T11:12:15.284Z,8.70
2019-06-07T11:14:42.544Z,7.45
2019-06-07T11:17:11.343Z,6.82
2019-06-07T11:19:37.571Z,7.35
2019-06-07T11:22:06.074Z,4.70
2019-06-07T11:24:32.607Z,6.47
2019-06-07T11:27:00.095Z,7.30
2019-06-07T11:29:27.870Z,7.10
2019-06-07T11:31:55.348Z,7.00
2019-06-07T11:34:22.936Z,6.10
2019-06-07T11:36:51.163Z,7.35
2019-06-07T11:39:18.898Z,7.97
2019-06-07T11:41:46.086Z,6.60
2019-06-07T11:44:15.016Z,7.18
2019-06-07T11:46:42.063Z,6.85
2019-06-07T11:49:10.890Z,6.30
2019-06-07T11:51:37.071Z,6.40
2019-06-07T11:54:04.615Z,8.00
2019-06-07T11:56:32.367Z,7.00
2019-06-07T11:58:59.876Z,5.95
2019-06-07T12:01:27.402Z,7.53
2019-06-07T12:08:49.119Z,5.00
2019-06-07T12:30:55.218Z,5.68
2019-06-07T12:33:21.727Z,6.53
2019-06-07T12:35:49.115Z,7.30
2019-06-07T12:38:17.336Z,5.70
2019-06-07T12:40:56.856Z,5.62
2019-06-07T12:43:12.370Z,7.07
2019-06-07T12:45:44.955Z,6.37
2019-06-07T12:48:07.762Z,4.87
2019-06-07T12:50:42.750Z,5.72
2019-06-07T12:53:02.845Z,4.22
2019-06-07T12:55:30.323Z,3.85
2019-06-07T12:57:57.790Z,3.05
2019-06-07T13:00:25.251Z,3.70
2019-06-07T13:02:52.775Z,3.78
2019-06-07T13:05:21.658Z,4.60
2019-06-07T13:07:47.756Z,3.60
2019-06-07T13:15:09.617Z,4.40
2019-06-07T13:17:37.112Z,4.00
2019-06-07T13:20:05.376Z,3.30
2019-06-07T13:22:32.867Z,3.95
2019-06-07T13:25:00.327Z,3.33
2019-06-07T13:27:31.923Z,3.92
2019-06-07T13:29:55.593Z,4.28
2019-06-07T13:32:23.746Z,3.03
2019-06-07T13:34:51.164Z,3.97
2019-06-07T13:37:19.635Z,2.55
2019-06-07T13:39:46.171Z,3.53
2019-06-07T13:42:13.994Z,3.10
2019-06-07T13:57:02.406Z,4.37
2019-06-07T13:59:26.344Z,3.50
2019-06-07T14:01:52.514Z,3.28
2019-06-07T14:04:20.917Z,4.57
2019-06-07T14:06:47.627Z,3.00
2019-06-07T14:09:15.098Z,3.60
2019-06-07T14:11:50.752Z,2.95
2019-06-07T14:14:10.100Z,3.60
2019-06-07T14:16:37.582Z,3.20
2019-06-07T14:19:05.037Z,2.72
2019-06-07T14:21:32.524Z,4.68
2019-06-07T14:24:00.058Z,4.20
2019-06-07T14:26:27.536Z,4.55
2019-06-07T14:28:55.007Z,2.80
2019-06-07T14:31:24.394Z,3.20
2019-06-07T14:36:17.105Z,3.80
2019-06-07T14:38:44.566Z,2.80
2019-06-07T14:41:12.078Z,3.05
2019-06-07T14:43:39.666Z,2.40
2019-06-07T14:46:07.109Z,2.30
2019-06-07T14:48:34.637Z,2.53
2019-06-07T14:51:02.147Z,2.60
2019-06-07T14:53:30.842Z,3.35
2019-06-07T14:55:57.168Z,1.65
2019-06-07T14:58:25.021Z,2.58
2019-06-07T15:00:52.158Z,2.25
2019-06-07T15:03:19.620Z,2.03
2019-06-07T15:05:47.121Z,1.90
2019-06-07T15:08:14.625Z,2.00
2019-06-07T15:10:42.181Z,2.10
2019-06-07T15:13:09.701Z,1.50
2019-06-07T15:15:37.208Z,2.25
2019-06-07T15:18:04.673Z,1.75
2019-06-07T15:20:32.270Z,3.75
2019-06-07T15:23:00.097Z,2.00
2019-06-07T15:25:29.067Z,4.72
2019-06-07T15:27:55.202Z,3.22
2019-06-07T15:30:22.774Z,2.10
2019-06-07T15:32:50.245Z,2.35
2019-06-07T15:35:17.746Z,2.90
2019-06-07T15:37:45.314Z,2.78
2019-06-07T15:40:13.252Z,2.75
2019-06-07T15:42:52.049Z,2.25
2019-06-07T15:45:08.244Z,3.45
2019-06-07T15:47:35.942Z,2.40
2019-06-07T15:50:10.640Z,3.12
2019-06-07T15:52:38.856Z,2.05
2019-06-07T15:55:06.454Z,2.08
2019-06-07T15:57:35.150Z,2.40
2019-06-07T16:00:01.655Z,2.53
2019-06-07T16:02:29.075Z,2.58
2019-06-07T16:04:56.539Z,2.33
2019-06-07T16:07:23.980Z,1.80
2019-06-07T16:09:51.470Z,1.55
2019-06-07T16:12:19.651Z,2.25
2019-06-07T16:14:47.137Z,2.00
2019-06-07T16:17:14.656Z,2.03
2019-06-07T16:19:44.942Z,2.50
2019-06-07T16:22:10.117Z,2.30
2019-06-07T16:24:37.722Z,2.00
2019-06-07T16:27:05.212Z,2.45
2019-06-07T16:29:32.696Z,2.50
2019-06-07T16:32:00.163Z,1.40
2019-06-07T16:34:27.647Z,1.98
2019-06-07T16:36:55.283Z,1.60
2019-06-07T16:39:22.785Z,1.60
2019-06-07T16:41:50.291Z,1.75
2019-06-07T16:44:17.805Z,2.47
2019-06-07T16:46:45.303Z,1.90
2019-06-07T16:49:12.789Z,1.65
2019-06-07T16:51:41.287Z,1.60
2019-06-07T16:54:07.763Z,1.85
2019-06-07T16:56:35.291Z,2.67
2019-06-07T16:59:02.771Z,2.05
2019-06-07T17:01:30.327Z,1.50
2019-06-07T17:03:57.838Z,1.77
2019-06-07T17:06:25.452Z,2.47
2019-06-07T17:08:52.970Z,1.67
2019-06-07T17:11:20.483Z,2.20
2019-06-07T17:13:48.562Z,1.30
2019-06-07T17:16:15.641Z,1.70
2019-06-07T17:18:43.143Z,2.00
2019-06-07T17:21:10.612Z,1.20
2019-06-07T17:23:39.116Z,1.15
2019-06-07T17:26:05.603Z,3.03
2019-06-07T17:28:33.203Z,1.10
2019-06-07T17:33:34.526Z,1.67
2019-06-07T17:36:02.076Z,1.62
2019-06-07T17:38:29.581Z,1.12
2019-06-07T17:40:57.103Z,1.60
2019-06-07T17:43:24.622Z,1.42
2019-06-07T17:45:52.115Z,1.20
2019-06-07T17:48:19.568Z,1.20
2019-06-07T17:50:47.800Z,1.20
2019-06-07T17:53:15.411Z,1.05
2019-06-07T17:55:44.110Z,1.48
2019-06-07T17:58:10.556Z,1.48
2019-06-07T18:00:44.639Z,0.90
2019-06-07T18:03:12.002Z,1.00
2019-06-07T18:05:39.543Z,1.00
2019-06-07T18:08:07.028Z,1.10
2019-06-07T18:10:35.533Z,1.70
2019-06-07T18:13:02.995Z,2.20
2019-06-07T18:15:40.169Z,0.90
2019-06-07T18:18:07.697Z,1.42
2019-06-07T18:20:35.152Z,1.10
2019-06-07T18:23:02.640Z,1.20
2019-06-07T18:25:30.166Z,1.00
2019-06-07T18:27:58.941Z,1.52
2019-06-07T18:30:25.194Z,1.40
2019-06-07T18:32:52.952Z,1.40
2019-06-07T18:35:20.142Z,2.90
2019-06-07T18:37:48.867Z,1.40
2019-06-07T18:40:15.101Z,1.25
2019-06-07T18:42:42.570Z,2.05
2019-06-07T18:45:10.027Z,1.33
2019-06-07T18:47:37.519Z,1.37
2019-06-07T18:50:05.017Z,2.87
2019-06-07T18:52:32.563Z,3.35
2019-06-07T18:55:00.129Z,1.65
2019-06-07T18:57:27.615Z,1.40
2019-06-07T18:59:56.436Z,1.65
2019-06-07T19:02:22.623Z,1.05
2019-06-07T19:04:50.600Z,1.37
2019-06-07T19:07:17.674Z,1.25
2019-06-07T19:09:45.257Z,1.45
2019-06-07T19:12:12.750Z,1.30
2019-06-07T19:14:40.275Z,2.03
2019-06-07T19:17:07.792Z,1.50
2019-06-07T19:19:35.294Z,1.85
2019-06-07T19:22:03.128Z,2.25
2019-06-07T19:24:30.581Z,1.35
2019-06-07T19:26:58.700Z,1.80
2019-06-07T19:29:25.761Z,1.77
2019-06-07T19:31:53.267Z,1.95
2019-06-07T19:34:20.721Z,1.30
2019-06-07T19:36:49.147Z,1.10
2019-06-07T19:39:15.696Z,1.65
2019-06-07T19:41:43.155Z,0.90
2019-06-07T19:44:10.635Z,1.50
2019-06-07T19:46:38.195Z,1.30
2019-06-07T19:49:05.807Z,1.90
2019-06-07T19:51:33.289Z,1.05
2019-06-07T19:54:01.774Z,1.30
2019-06-07T19:56:28.304Z,1.33
2019-06-07T19:58:55.755Z,1.50
2019-06-07T20:01:23.309Z,1.33
2019-06-07T20:03:50.812Z,1.33
2019-06-07T20:06:18.440Z,1.23
2019-06-07T20:08:45.907Z,1.65
2019-06-07T20:11:13.502Z,1.30
2019-06-07T20:13:40.994Z,1.02
2019-06-07T20:16:08.438Z,1.02
2019-06-07T20:18:35.898Z,1.50
2019-06-07T20:21:04.824Z,2.15
2019-06-07T20:23:31.046Z,1.12
2019-06-07T20:25:58.500Z,1.23
2019-06-07T20:28:26.822Z,1.80
2019-06-07T20:30:54.304Z,1.15
2019-06-07T20:33:21.820Z,1.23
2019-06-07T20:35:49.328Z,1.77
2019-06-07T20:38:16.803Z,1.12
2019-06-07T20:40:44.368Z,1.25
2019-06-07T20:43:11.835Z,1.40
2019-06-07T20:45:39.298Z,1.90
2019-06-07T20:48:08.305Z,1.00
2019-06-07T20:50:34.469Z,1.50
2019-06-07T20:53:03.162Z,1.17
2019-06-07T20:55:29.512Z,1.12
2019-06-07T20:57:57.099Z,2.17
2019-06-07T21:00:24.572Z,0.93
2019-06-07T21:02:52.028Z,1.27
2019-06-07T21:05:19.497Z,1.00
2019-06-07T21:07:46.949Z,1.10
2019-06-07T21:10:14.438Z,1.23
2019-06-07T21:12:41.979Z,1.45
2019-06-07T21:15:12.834Z,1.33
2019-06-07T21:17:36.988Z,1.30
2019-06-07T21:20:07.059Z,1.40
2019-06-07T21:22:32.132Z,1.37
2019-06-07T21:25:00.669Z,1.35
2019-06-07T21:27:27.258Z,1.12
2019-06-07T21:29:54.746Z,2.80
2019-06-07T21:32:22.190Z,1.30
2019-06-07T21:34:49.738Z,1.17
2019-06-07T21:37:18.176Z,1.42
2019-06-07T21:39:45.627Z,1.52
2019-06-07T21:42:13.095Z,1.77
2019-06-07T21:44:40.682Z,0.93
2019-06-07T21:47:08.488Z,1.55
2019-06-07T21:49:35.712Z,1.10
2019-06-07T21:52:04.323Z,1.10
2019-06-07T21:54:30.822Z,1.23
2019-06-07T21:56:58.400Z,1.27
2019-06-07T21:59:25.917Z,1.02
2019-06-07T22:01:53.435Z,1.10
2019-06-07T22:04:20.906Z,1.00
2019-06-07T22:06:48.361Z,1.20
2019-06-07T22:09:15.874Z,1.27
2019-06-07T22:11:43.347Z,1.48
2019-06-07T22:14:10.823Z,1.10
2019-06-07T22:16:38.763Z,1.35
2019-06-07T22:19:06.545Z,1.30
2019-06-07T22:21:33.738Z,1.35
2019-06-07T22:24:01.202Z,2.65
2019-06-07T22:26:28.876Z,1.42
2019-06-07T22:28:56.361Z,1.70
2019-06-07T22:31:23.863Z,1.80
2019-06-07T22:33:52.331Z,1.25
2019-06-07T22:36:19.959Z,2.97
2019-06-07T22:38:47.527Z,1.67
2019-06-07T22:41:15.899Z,1.65
2019-06-07T22:43:42.562Z,1.35
2019-06-07T22:46:10.846Z,1.20
2019-06-07T22:48:37.606Z,1.30
2019-06-07T22:51:07.265Z,0.93
2019-06-07T22:53:32.807Z,1.08
2019-06-07T22:56:01.252Z,1.30
2019-06-07T22:58:28.778Z,1.50
2019-06-07T23:00:56.223Z,3.12
2019-06-07T23:03:23.717Z,1.90
2019-06-07T23:05:51.198Z,1.10
2019-06-07T23:08:19.087Z,1.10
2019-06-07T23:10:46.178Z,1.87
2019-06-07T23:13:13.821Z,1.55
2019-06-07T23:15:41.392Z,1.12
2019-06-07T23:18:09.378Z,1.40
2019-06-07T23:20:36.510Z,1.20
2019-06-07T23:23:04.007Z,1.45
2019-06-07T23:25:31.464Z,1.55
2019-06-07T23:27:58.940Z,1.55
2019-06-07T23:30:26.426Z,1.62
2019-06-07T23:32:54.285Z,1.00
2019-06-07T23:35:21.774Z,1.95
2019-06-07T23:37:49.359Z,1.58
2019-06-07T23:40:17.344Z,1.00
2019-06-07T23:42:44.362Z,1.25
2019-06-07T23:45:13.646Z,1.62
2019-06-07T23:47:39.707Z,8.45
2019-06-07T23:50:07.247Z,0.98
2019-06-07T23:52:34.703Z,1.25
2019-06-07T23:55:02.255Z,1.08
2019-06-07T23:57:29.748Z,1.37
2019-06-07T23:59:57.295Z,2.08
